Date,TemperatureHighF,TemperatureAvgF,TemperatureLowF,DewpointHighF,DewpointAvgF,DewpointLowF,HumidityHigh,HumidityAvg,HumidityLow,PressureMaxIn,PressureMinIn,WindSpeedMaxMPH,WindSpeedAvgMPH,GustSpeedMaxMPH,PrecipitationSumIn
2014-1-1,51,37,27,32,28,26,100,75,39,30.51,30.21,12,2,12,0.00
2014-1-2,47,42,36,46,39,31,100,91,75,30.21,29.63,15,3,15,0.38
2014-1-3,41,27,18,40,16,9,96,63,42,30.60,29.68,24,9,24,0.01
2014-1-4,37,28,13,26,17,11,100,68,37,30.65,30.33,10,3,10,0.00
2014-1-5,58,46,35,58,43,26,100,89,70,30.33,29.75,21,6,21,0.00
2014-1-6,60,43,14,60,36,-2,100,79,42,30.29,29.59,30,12,30,0.17
2014-1-7,21,13,6,9,0,-5,89,55,36,30.65,30.29,15,7,15,0.00
2014-1-8,42,25,10,20,12,9,100,65,29,30.70,30.51,12,3,12,0.00
2014-1-9,52,37,22,28,18,12,87,51,22,30.65,30.46,10,3,10,0.00
2014-1-10,59,42,37,59,39,27,100,90,61,30.53,30.06,12,5,12,0.67
2014-1-11,68,60,52,68,60,52,100,100,100,30.06,29.55,25,9,25,0.20
2014-1-12,56,48,35,55,36,33,100,68,46,30.25,29.62,20,6,20,0.19
2014-1-13,61,46,30,46,39,30,100,77,50,30.27,29.97,20,4,20,0.00
2014-1-14,52,46,37,51,46,37,100,99,78,30.05,29.81,12,4,12,0.37
2014-1-15,59,44,35,52,40,34,100,87,56,30.05,29.79,14,5,14,0.01
2014-1-16,38,36,34,35,34,33,100,96,89,30.01,29.98,12,7,12,0.00
2014-1-18,34,29,22,21,15,12,84,57,42,30.16,30.03,18,7,18,0.00
2014-1-19,53,38,25,31,26,19,85,63,42,30.14,29.86,17,5,17,0.00
2014-1-20,63,44,30,34,30,27,97,62,30,30.01,29.71,15,4,15,0.00
2014-1-21,52,36,23,39,32,23,100,83,58,29.96,29.54,25,7,25,0.00
2014-1-22,26,21,13,23,15,6,100,80,45,30.25,29.95,18,5,18,0.09
2014-1-23,35,23,10,18,12,5,100,66,39,30.56,30.23,16,5,16,0.02
2014-1-24,25,15,8,6,1,-3,76,54,30,30.75,30.39,12,5,12,0.00
2014-1-25,39,27,13,19,10,3,70,49,37,30.39,29.68,20,8,20,0.00
2014-1-26,52,38,20,28,21,17,94,54,27,30.08,29.83,18,5,18,0.00
2014-1-27,65,48,30,40,32,3,74,55,29,30.20,29.70,21,6,21,0.00
2014-1-28,31,23,14,17,6,-3,100,53,29,30.42,30.20,18,10,18,0.00
2014-1-29,25,18,10,17,11,2,100,79,40,30.52,30.30,12,5,12,0.00
2014-1-30,38,20,5,13,7,3,100,64,29,30.58,30.30,12,3,12,0.11
2014-1-31,55,32,12,22,16,12,100,60,25,30.37,30.08,10,2,10,0.09
2014-2-1,58,41,24,43,27,16,100,62,28,30.34,30.10,14,3,14,0.00
2014-2-2,65,51,40,52,47,40,100,88,60,30.12,29.94,13,4,13,0.00
2014-2-3,60,48,38,60,48,38,100,100,96,30.33,29.86,20,8,20,0.16
2014-2-4,38,37,35,38,37,35,100,100,98,30.47,30.15,20,8,20,0.58
2014-2-5,50,41,36,50,41,32,100,98,75,30.15,29.80,13,5,13,0.08
2014-2-6,40,35,28,33,27,24,89,73,56,30.39,30.12,17,6,17,0.00
2014-2-7,53,38,31,38,32,29,100,79,47,30.41,30.21,12,3,12,0.00
2014-2-8,47,38,32,33,31,28,99,78,57,30.36,30.12,10,4,10,0.00
2014-2-9,52,39,27,41,35,27,100,87,62,30.27,29.96,16,3,16,0.00
2014-2-10,42,36,32,38,33,29,100,92,69,30.32,30.07,13,4,13,0.09
2014-2-11,33,28,24,33,22,17,100,79,63,30.51,30.31,18,8,18,0.00
2014-2-12,30,23,20,30,20,14,100,89,65,30.53,29.85,26,12,26,0.00
2014-2-13,31,31,30,31,31,30,100,100,100,29.85,29.75,6,3,7,0.02
2014-2-15,44,37,29,42,24,18,100,61,46,30.13,29.64,24,12,24,1.75
2014-2-16,51,38,27,32,26,18,79,63,42,30.24,29.98,12,5,12,0.00
2014-2-17,46,35,27,30,25,21,87,67,42,30.45,30.24,17,8,17,0.00
2014-2-18,64,46,33,39,30,21,100,60,20,30.27,30.05,13,5,13,0.00
2014-2-19,69,56,45,65,53,32,100,90,60,30.14,29.80,122,6,122,0.44
2014-2-20,68,59,50,65,50,35,100,73,47,30.23,29.95,17,8,17,0.00
2014-2-21,72,58,40,68,58,40,100,98,83,30.10,29.75,27,8,27,0.42
2014-2-22,66,50,35,40,31,25,100,53,24,30.20,30.01,10,4,10,0.00
2014-2-23,68,52,34,44,37,30,91,60,35,30.18,29.85,14,4,14,0.00
2014-2-24,58,49,37,47,29,16,83,49,26,30.22,29.89,18,6,18,0.00
2014-2-25,51,39,29,33,23,13,74,54,37,30.21,29.95,12,4,12,0.00
2014-2-26,47,36,28,32,25,17,90,65,45,30.07,29.79,18,5,18,0.00
2014-2-27,53,37,19,23,15,7,90,45,21,30.10,29.72,18,5,18,0.00
2014-2-28,41,32,24,17,13,10,66,48,31,30.42,30.10,20,9,20,0.00
2014-3-1,56,38,26,38,26,13,95,63,46,30.44,30.17,12,4,12,0.00
2014-3-2,72,54,33,49,43,33,100,72,42,30.30,29.87,17,6,17,0.00
2014-3-3,61,36,16,51,34,15,100,94,69,30.44,29.83,27,12,27,0.36
2014-3-4,35,24,13,19,14,10,94,67,46,30.48,30.26,20,9,20,0.11
2014-3-5,43,34,28,24,19,15,72,56,39,30.38,30.17,12,5,12,0.01
2014-3-6,38,33,28,33,26,15,100,76,52,30.47,30.23,22,13,22,0.58
2014-3-7,35,33,31,35,33,31,100,100,100,30.23,29.95,25,10,25,1.37
2014-3-8,68,47,27,48,40,27,100,78,45,30.13,29.87,12,4,12,0.00
2014-3-9,64,52,41,45,41,36,100,67,39,30.09,29.95,13,5,13,0.00
2014-3-10,73,54,34,44,34,28,100,56,22,30.08,29.71,14,4,14,0.00
2014-3-11,80,63,43,44,40,34,84,47,20,29.83,29.55,13,4,13,0.00
2014-3-12,66,54,42,62,47,31,100,76,62,29.74,29.23,24,9,24,0.30
2014-3-13,42,36,25,31,16,6,80,46,25,30.36,29.67,22,10,22,0.00
2014-3-14,61,42,21,36,21,14,99,51,21,30.44,30.09,20,6,20,0.00
2014-3-15,71,58,48,41,39,36,73,51,29,30.12,29.85,16,7,16,0.00
2014-3-16,55,47,35,44,35,29,100,66,40,30.09,29.95,24,8,24,0.29
2014-3-17,35,30,29,35,30,29,100,100,100,30.09,29.95,22,10,22,0.39
2014-3-18,36,32,28,36,32,28,100,100,100,30.26,30.05,17,4,17,0.24
2014-3-19,47,39,33,47,39,33,100,100,100,30.27,30.03,12,5,12,0.09
2014-3-20,65,52,41,51,37,24,100,64,26,30.09,29.87,15,6,15,0.00
2014-3-21,70,52,31,40,31,23,97,49,25,30.24,29.96,15,4,15,0.00
2014-3-22,74,59,44,48,41,35,93,54,31,30.11,29.85,15,5,15,0.00
2014-3-23,56,46,37,46,40,35,100,80,54,30.23,29.96,20,7,20,0.19
2014-3-24,51,38,29,38,27,20,100,68,32,30.38,30.12,14,5,14,0.00
2014-3-25,46,37,30,40,32,24,100,84,54,30.20,29.81,13,6,13,0.08
2014-3-26,44,34,27,31,18,10,100,55,25,30.46,30.04,20,9,20,0.09
2014-3-27,59,41,22,35,21,14,90,48,25,30.56,30.29,21,6,21,0.00
2014-3-28,68,55,43,62,51,36,100,89,68,30.34,30.07,17,6,17,0.20
2014-3-29,64,60,56,64,60,56,100,100,100,30.13,29.55,20,5,20,1.77
2014-3-30,62,47,39,61,40,33,100,81,61,29.97,29.53,24,12,24,0.19
2014-3-31,71,54,40,35,30,26,68,44,20,30.14,29.95,16,7,16,0.00
2014-4-1,81,61,42,43,36,30,67,43,19,30.19,29.89,10,3,10,0.00
2014-4-2,87,70,50,48,43,37,68,41,19,30.11,29.85,16,4,16,0.00
2014-4-3,79,63,47,57,51,43,100,68,46,30.11,29.85,12,5,12,0.00
2014-4-4,82,71,55,60,55,46,95,60,31,29.93,29.63,20,6,20,0.00
2014-4-5,72,62,53,58,43,32,89,51,30,30.13,29.75,16,6,16,0.00
2014-4-6,59,51,42,41,35,29,69,54,40,30.29,30.11,23,9,23,0.00
2014-4-7,61,50,41,61,49,32,100,96,49,30.16,29.67,20,7,20,1.71
2014-4-8,67,61,53,63,54,43,100,80,52,29.74,29.57,20,6,20,0.01
2014-4-9,54,52,49,46,44,42,86,73,68,29.76,29.73,13,4,13,0.01
2014-4-11,79,72,62,52,48,43,69,44,30,30.15,29.95,21,7,21,0.01
2014-4-12,82,68,54,56,52,49,93,61,35,30.21,30.01,18,6,18,0.00
2014-4-13,82,72,55,64,59,54,100,65,46,30.24,29.99,21,8,21,0.00
2014-4-14,78,66,58,67,61,56,100,86,53,30.12,29.85,18,8,18,0.02
2014-4-15,69,60,40,69,60,37,100,100,86,30.11,29.59,22,9,22,1.49
2014-4-16,53,42,30,38,28,22,94,63,37,30.56,30.11,24,8,24,0.00
2014-4-17,63,46,30,44,37,30,100,72,41,30.63,30.39,17,8,17,0.00
2014-4-18,61,48,36,49,42,36,100,81,56,30.55,30.24,15,8,15,0.10
2014-4-19,52,48,44,50,47,44,100,96,80,30.29,30.19,20,10,20,0.64
2014-4-20,66,56,49,50,43,35,83,62,53,30.27,30.15,29,13,29,0.00
2014-4-21,74,55,40,46,37,20,85,57,16,30.27,29.88,16,6,16,0.00
2014-4-22,83,64,46,59,51,40,100,67,33,29.99,29.54,18,4,18,0.01
2014-4-23,70,61,54,60,43,32,100,56,27,30.03,29.69,15,7,15,0.00
2014-4-24,72,56,39,46,37,29,98,53,26,30.19,29.93,12,4,12,0.00
2014-4-25,79,61,49,68,57,40,100,86,58,30.05,29.63,22,6,22,0.36
2014-4-26,80,71,63,54,49,46,69,47,32,29.95,29.78,12,5,12,0.34
2014-4-27,85,68,52,59,53,47,95,61,28,30.03,29.79,15,5,15,0.00
2014-4-28,63,56,51,61,53,42,100,90,65,30.06,29.93,15,7,15,0.03
2014-4-29,62,55,50,62,55,50,100,100,100,30.07,29.96,12,6,12,0.07
2014-4-30,77,70,61,76,69,61,100,100,91,30.04,29.85,26,9,26,0.86
2014-5-1,80,70,64,71,66,61,100,88,56,29.89,29.71,17,5,17,0.00
2014-5-2,71,61,53,63,48,40,100,66,40,29.97,29.81,12,4,12,0.00
2014-5-3,76,62,51,59,51,46,100,70,36,29.95,29.75,10,3,10,0.00
2014-5-4,83,66,49,58,52,46,100,64,35,30.04,29.70,10,4,14,0.00
2014-5-5,73,62,54,58,53,49,100,75,52,30.06,29.86,13,6,13,0.00
2014-5-6,80,65,54,65,60,53,100,85,54,30.02,29.80,10,4,10,0.00
2014-5-7,80,65,55,70,63,55,100,95,69,30.15,29.99,12,4,12,0.00
2014-5-8,90,74,59,72,61,54,100,70,31,30.17,29.92,10,3,10,0.00
2014-5-9,89,74,59,70,64,59,100,75,41,30.15,29.89,14,4,14,0.01
2014-5-10,86,73,63,73,66,59,100,82,57,30.11,29.87,20,4,20,0.00
2014-5-11,87,72,60,69,63,58,100,77,43,30.15,29.95,12,3,12,0.00
2014-5-12,92,74,57,72,64,57,100,75,38,30.17,29.95,10,2,10,0.00
2014-5-13,94,78,64,75,68,64,100,77,41,30.12,29.92,10,3,10,0.00
2014-5-14,89,77,65,74,68,64,100,77,47,30.14,29.94,18,6,18,0.00
2014-5-15,78,69,66,73,68,66,100,96,81,30.11,29.85,20,6,27,1.39
2014-5-16,72,64,55,68,58,53,100,83,54,30.05,29.80,7,4,25,1.10
2014-5-17,69,59,47,56,47,41,98,68,42,30.19,30.05,8,4,12,1.63
2014-5-18,68,58,49,56,49,44,100,74,49,30.28,30.13,9,2,15,0.00
2014-5-19,74,59,46,56,47,42,100,71,35,30.35,30.14,7,2,12,0.00
2014-5-20,80,64,47,60,55,47,100,77,49,30.33,30.00,6,2,15,0.00
2014-5-21,85,73,62,67,64,59,98,75,51,30.09,29.83,5,3,9,0.00
2014-5-22,87,76,65,68,66,62,100,73,49,29.91,29.73,6,3,13,0.00
2014-5-23,81,74,61,67,62,52,100,69,54,29.99,29.83,12,4,12,0.00
2014-5-24,79,66,53,58,53,49,95,64,42,30.16,29.96,14,4,14,0.00
2014-5-25,83,69,55,64,59,54,100,75,41,30.19,30.02,8,2,8,0.00
2014-5-26,87,73,58,70,64,58,100,78,51,30.22,29.94,15,3,15,0.00
2014-5-27,90,74,66,74,69,66,100,88,55,30.07,29.82,15,3,15,0.29
2014-5-28,90,76,65,75,70,65,100,84,52,29.98,29.79,18,3,18,0.00
2014-5-29,71,66,64,70,66,64,100,99,86,30.12,29.98,12,5,18,0.12
2014-5-30,70,66,63,70,66,63,100,100,99,30.16,30.05,12,4,12,0.02
2014-5-31,80,68,59,68,61,56,100,79,51,30.24,30.03,15,4,15,0.00
2014-6-1,77,64,51,60,54,51,100,72,43,30.37,30.17,12,4,12,0.00
2014-6-2,83,67,49,62,57,48,100,74,41,30.35,30.04,10,2,10,0.00
2014-6-3,86,70,54,75,64,54,100,85,53,30.15,29.83,9,2,9,0.01
2014-6-4,89,75,63,75,70,63,100,86,50,29.93,29.68,10,3,10,0.00
2014-6-5,88,79,71,76,72,66,100,80,52,29.83,29.58,10,4,10,0.00
2014-6-6,84,73,66,71,67,63,100,82,54,29.97,29.79,14,5,14,0.00
2014-6-7,85,71,60,70,65,60,100,83,50,30.01,29.83,10,3,10,0.00
2014-6-8,86,74,62,71,66,62,100,77,54,30.00,29.79,18,5,18,0.00
2014-6-9,88,76,68,76,71,63,100,84,62,29.90,29.72,12,3,12,0.29
2014-6-10,93,78,67,81,73,67,100,86,52,29.92,29.74,12,3,12,0.11
2014-6-11,92,76,67,76,71,67,100,87,49,29.94,29.74,26,4,26,0.73
2014-6-12,84,73,67,81,72,67,100,96,70,29.94,29.74,10,3,10,0.16
2014-6-13,87,74,65,77,71,65,100,92,61,29.87,29.67,20,3,20,0.08
2014-6-14,86,73,62,72,66,55,100,81,41,30.09,29.85,12,4,12,0.00
2014-6-15,90,73,60,72,67,58,100,83,53,30.15,29.97,12,3,12,0.00
2014-6-16,96,80,67,77,71,67,100,79,45,30.16,29.92,7,3,7,0.00
2014-6-17,95,81,71,78,73,70,100,80,49,30.13,29.91,12,3,12,0.00
2014-6-18,97,82,71,76,73,69,100,76,45,30.09,29.87,12,4,12,0.00
2014-6-19,97,83,70,76,72,63,100,72,45,30.07,29.83,20,4,20,0.00
2014-6-20,88,77,68,77,72,68,100,86,63,30.03,29.83,9,3,10,0.30
2014-6-21,91,76,68,82,73,68,100,91,59,29.95,29.68,12,3,12,0.60
2014-6-22,82,72,67,77,71,67,100,97,79,30.01,29.81,14,5,14,0.04
2014-6-23,85,73,63,71,66,63,100,81,52,30.15,29.97,12,5,12,0.00
2014-6-24,88,75,63,76,70,63,100,86,58,30.17,29.95,12,5,12,0.00
2014-6-25,92,78,72,78,74,72,100,88,57,30.03,29.76,12,3,12,0.36
2014-6-26,92,79,69,76,72,67,100,81,49,29.96,29.78,10,3,10,0.01
2014-6-27,86,74,69,80,72,69,100,96,74,30.14,29.92,13,5,13,0.45
2014-6-28,84,74,67,74,70,63,100,87,67,30.25,30.09,17,7,17,0.01
2014-6-29,86,71,58,67,63,58,100,77,48,30.29,30.05,12,4,12,0.00
2014-6-30,92,77,63,73,69,63,100,77,49,30.15,29.86,10,3,10,0.00
2014-7-1,92,80,68,77,72,68,100,78,52,29.99,29.78,16,4,16,0.00
2014-7-2,97,84,72,78,74,72,100,76,50,29.94,29.76,17,4,17,0.00
2014-7-3,91,78,72,80,75,72,100,92,61,29.99,29.83,20,5,20,0.03
2014-7-4,84,76,68,74,67,61,100,77,51,30.19,29.85,16,5,16,0.00
2014-7-5,86,71,60,61,55,48,94,60,33,30.29,30.11,18,5,18,0.00
2014-7-6,89,73,57,69,62,57,100,72,36,30.25,29.93,14,3,14,0.00
2014-7-7,93,77,65,75,69,64,100,80,44,30.06,29.81,13,4,13,0.00
2014-7-13,95,86,77,73,70,64,88,60,41,29.99,29.88,18,6,18,0.00
2014-7-14,94,80,73,81,76,73,100,88,54,30.00,29.79,15,4,15,0.54
2014-7-15,93,77,67,80,74,67,100,93,64,29.89,29.62,20,4,20,2.42
2014-7-16,79,71,64,71,68,64,100,91,63,29.97,29.79,13,4,13,1.40
2014-7-17,85,71,58,69,64,58,100,81,49,30.13,29.93,10,2,10,0.00
2014-7-18,85,73,64,71,64,58,100,75,42,30.19,30.06,14,5,14,0.00
2014-7-19,81,71,64,70,65,60,100,83,53,30.20,30.03,14,4,14,0.00
2014-7-20,82,72,67,75,71,67,100,95,72,30.13,29.99,12,4,12,0.02
2014-7-21,77,73,70,77,73,70,100,100,100,30.16,30.06,12,4,12,0.05
2014-7-22,84,75,70,78,73,70,100,95,74,30.17,30.02,10,4,10,0.00
2014-7-23,93,80,70,80,74,70,100,86,57,30.11,29.77,10,3,10,0.00
2014-7-24,88,76,72,78,75,72,100,95,68,29.90,29.77,12,3,12,0.04
2014-8-1,73,66,62,73,66,62,100,100,91,30.13,30.09,18,9,18,0.52
2014-8-2,68,65,63,68,65,63,100,100,100,30.15,30.07,12,5,12,0.91
2014-8-3,80,70,65,76,69,65,100,98,78,30.14,29.99,12,2,12,0.00
2014-8-4,84,72,65,74,69,65,100,91,67,30.12,29.95,12,3,12,0.00
2014-8-5,88,75,67,76,70,67,100,88,56,30.07,29.87,13,3,13,0.00
2014-8-6,89,77,68,76,71,65,100,83,50,30.00,29.79,12,3,12,0.00
2014-8-7,85,75,67,75,71,67,100,88,66,30.04,29.87,10,4,10,0.00
2014-8-8,81,73,66,73,70,66,100,91,68,30.11,30.01,9,3,9,0.00
2014-8-9,72,66,62,71,66,62,100,100,100,30.17,30.07,12,5,12,0.18
2014-8-12,86,85,83,78,77,76,85,77,73,24.63,24.60,7,4,7,0.18
2014-8-13,85,85,85,77,77,77,77,77,77,0.00,40.00,4,4,4,0.18
2014-8-18,82,79,77,77,77,75,100,94,83,32.42,30.15,8,4,8,0.18
2014-8-19,88,79,72,78,75,72,100,89,67,32.45,30.15,10,2,10,0.18
2014-8-20,91,76,69,78,73,69,100,93,64,32.59,32.59,9,3,9,0.00
2014-8-21,93,79,69,79,74,69,100,88,57,32.61,30.15,10,3,10,0.02
2014-8-22,89,78,70,79,75,70,100,90,63,32.51,32.51,10,2,10,0.00
2014-8-23,84,75,70,77,74,70,100,96,79,32.56,32.42,14,5,14,0.00
2014-8-24,78,71,63,70,68,63,100,90,70,32.70,32.55,20,8,20,0.00
2014-8-25,76,67,58,69,64,58,100,92,73,32.72,32.60,16,6,16,0.00
2014-8-26,80,68,58,70,64,58,100,88,62,32.74,32.57,15,4,15,0.00
2014-8-27,85,70,57,69,64,57,100,85,52,32.68,32.44,14,4,14,0.00
2014-8-28,93,76,63,78,72,63,100,87,59,32.57,32.37,10,2,10,0.00
2014-8-29,80,74,70,76,73,70,100,96,83,32.72,30.15,15,6,15,0.00
2014-8-30,89,77,67,77,73,67,100,89,64,32.71,32.71,12,4,12,0.00
2014-8-31,93,79,69,78,74,69,100,86,57,32.74,30.15,13,3,13,0.00
2014-9-1,93,80,71,80,75,70,100,86,52,32.65,30.15,10,3,10,0.00
2014-9-2,97,83,70,78,73,68,100,75,43,32.63,30.15,20,3,20,0.00
2014-9-3,94,79,70,78,73,69,100,84,50,32.68,30.15,12,3,12,0.20
2014-9-4,87,74,68,80,73,68,100,97,75,32.77,30.15,12,3,12,0.38
2014-9-5,93,78,69,83,74,69,100,89,54,32.75,30.15,12,2,12,0.52
2014-9-6,93,79,69,79,74,69,100,88,59,32.65,30.15,13,3,13,0.36
2014-9-7,75,72,69,74,72,69,100,99,94,32.67,30.15,16,6,16,0.00
2014-9-8,70,68,66,70,68,66,100,100,100,32.68,30.15,17,8,17,1.40
2014-9-9,75,68,64,75,68,64,100,100,94,32.65,32.65,15,6,15,0.20
2014-9-10,82,71,64,75,69,64,100,94,71,32.68,30.15,8,2,8,0.00
2014-9-11,88,75,64,79,72,64,100,92,71,32.63,30.15,14,3,14,0.04
2014-9-12,79,72,68,74,71,68,100,96,83,32.67,30.15,15,5,15,0.07
2014-9-13,78,70,67,78,70,67,100,100,97,32.74,30.15,16,5,16,0.01
2014-9-14,69,64,59,67,61,58,100,92,77,32.82,30.15,14,6,14,0.00
2014-9-15,75,67,60,70,65,60,100,95,75,32.82,30.15,10,2,10,0.00
2014-9-16,84,72,65,73,68,65,100,87,57,32.54,30.15,9,3,9,0.01
2014-9-17,77,69,64,70,67,64,100,94,75,32.56,30.15,15,6,15,0.00
2014-9-18,81,68,58,68,63,58,100,86,56,32.63,30.15,12,3,12,0.00
2014-9-19,77,67,60,67,64,60,100,89,67,32.84,32.84,13,5,13,0.00
2014-9-20,79,67,57,67,63,57,100,87,60,32.84,30.15,15,6,15,0.00
2014-9-21,78,69,62,70,66,58,100,89,72,32.57,30.15,10,4,10,0.00
2014-9-22,78,70,61,68,61,54,100,73,52,33.74,28.29,14,3,14,0.00
2014-9-23,63,58,54,61,54,50,100,87,77,33.39,33.21,17,7,17,0.07
2014-9-24,62,58,53,62,58,53,100,100,100,33.39,33.27,20,10,20,3.29
2014-9-25,67,63,61,67,63,61,100,100,98,33.29,33.19,15,8,15,0.04
2014-9-26,75,65,60,67,63,60,100,94,70,33.26,33.12,16,6,16,0.03
2014-9-27,75,64,55,66,61,55,100,90,66,33.29,33.14,13,4,13,0.00
2014-9-28,78,65,54,68,62,54,100,91,66,33.27,33.03,10,2,10,0.00
2014-9-29,72,64,61,70,64,61,100,99,86,33.01,33.01,7,1,7,0.06
2014-9-30,75,64,58,69,64,58,100,98,80,33.01,32.84,8,2,8,0.00